< < Back
Terminal Aerodrome Forecast


Current Version              Previous Versions:   1  2  3  4  5  6  7  8  9  

Terminal Aerodrome Forecast

206
FTUS44 KBMX 222000 AAA
TAFTCL
TAF AMD
KTCL 222017Z 2220/2318 13008KT P6SM OVC013
     FM230200 15006KT 2SM BR OVC007
     FM231000 17005KT 3SM BR VCSH OVC005
     FM231700 15007KT 4SM SHRA OVC007=



Latest METAR

641
SAUS70 KWBC 230200 RRL
MTRTCL
METAR KTCL 230153Z AUTO 14007KT 10SM OVC006 13/12 A2979 RMK AO2 SLP085
T01330117


USA.gov is the U.S. government's official web portal to all federal, state and local government web resources and services.